Etusivu
METAR-TAF:

METAR-TAF

Lentoasemat :

Fort Bliss, Texas, Yhdysvallat

Leveyspiiri: 31-50-58N, Pituuspiiri: 106-22-48W, korkeus merenpinnasta: 1203 m

Tämänhetkinen sää

Tämä raportti tehtiin 37 minuuttia sitten, kello 14.58 UTC
Tuuli 6 kn idästä/kaakosta
Lämpötila 6°C
Kosteus 61%
Ilmanpaine 1018 hPa
Näkyvyys: 16.1 km
selkeää

METAR: KBIF 251458Z AUTO 12006KT 10SM CLR 06/M01 A3006 RMK AO2 SLP159 T00581013 52013 $

Aika: 08:35 (15:35 UTC)

Sääennuste

Ennuste voimassa 25. päivästä klo 14 UTC - 26. päivään klo 20 UTC
Tuuli 6 kn eri suunnista
Näkyvyys 10 km tai enemmän
Muutamia pilviä 20000 ft:n korkeudessa
Tulossa
26. päivästä klo 00 UTC - 26. päivään klo 01 UTC
Tuuli 6 kn eri suunnista
Näkyvyys 10 km tai enemmän
Hajanaisia pilviä 20000 ft:n korkeudessa

TAF: KBIF 2514/2620 VRB06KT 9999 FEW200 QNH2999INS BECMG 2600/2601 VRB06KT 9999 SCT200 QNH3002INS TX18/2521Z TN03/2514Z

Säähavainnot ja -ennusteet yli 4000 lentoasemalta (METAR- ja TAF-raportit).

Käytössä olevat sääasemat on merkitty karttaan keltaisilla ja punaisilla pisteillä.

Aseta hiiri pisteen päälle nähdäksesi sääaseman nimen.

Klikkaa sitten nähdäksesi säähavainnot ja -ennusteet.

Kartan vaihtaminen: klikkaa mustalla rastilla varustettuja vihreitä pisteitä, niin voit zoomata sisään; viivalla varustettua vihreää pistettä, niin voit zoomata ulos tai vihreitä nuolia, niin pääset viereisille kartoille.


METAR-TAF: